Time;durP1;ratioP1;P1;durP2;ratioP2;P2;SDS_P1;SDS_P2;PMS_P1;PMS_P2;Temp;Humidity;BMP_temperature;BMP_pressure;BME280_temperature;BME280_humidity;BME280_pressure;Samples;Min_cycle;Max_cycle;Signal;HPM_P1;HPM_P2
2021/08/04 00:00:00;;;;;;;18.32;12.53;;;27.00;68.30;;;;;;1875232;76;21063;-54
2021/08/04 00:02:31;;;;;;;18.77;12.05;;;27.00;68.40;;;;;;1873294;76;21092;-53
2021/08/04 00:05:01;;;;;;;13.32;10.80;;;26.90;68.50;;;;;;1875312;76;21051;-53
2021/08/04 00:07:30;;;;;;;22.87;12.53;;;26.90;68.60;;;;;;1875239;76;21166;-54
2021/08/04 00:10:00;;;;;;;14.50;11.15;;;26.90;68.50;;;;;;1875327;76;21130;-54
2021/08/04 00:12:29;;;;;;;18.73;11.35;;;26.90;68.40;;;;;;1875225;76;21036;-54
2021/08/04 00:14:59;;;;;;;22.58;10.35;;;26.80;68.30;;;;;;1875251;76;21064;-52
2021/08/04 00:17:28;;;;;;;16.23;12.00;;;26.80;68.30;;;;;;1875320;76;21097;-53
2021/08/04 00:19:57;;;;;;;16.65;11.55;;;26.80;68.50;;;;;;1875236;76;21043;-53
2021/08/04 00:22:27;;;;;;;11.90;10.48;;;26.70;68.40;;;;;;1875353;76;21008;-54
2021/08/04 00:24:56;;;;;;;14.95;11.73;;;26.70;68.50;;;;;;1875282;75;21123;-52
2021/08/04 00:27:27;;;;;;;14.05;10.80;;;26.60;68.30;;;;;;1875314;76;21027;-54
2021/08/04 00:29:59;;;;;;;15.00;11.15;;;26.60;68.50;;;;;;1875335;76;21047;-53
2021/08/04 00:32:29;;;;;;;14.78;10.45;;;26.60;68.50;;;;;;1875222;76;21113;-54
2021/08/04 00:34:58;;;;;;;14.00;11.55;;;26.50;68.40;;;;;;1875249;76;21105;-52
2021/08/04 00:37:29;;;;;;;14.43;12.23;;;26.50;68.40;;;;;;1875204;76;21105;-53
2021/08/04 00:39:58;;;;;;;13.65;11.63;;;26.30;68.50;;;;;;1875255;76;21114;-54
2021/08/04 00:42:28;;;;;;;15.32;11.53;;;26.20;69.00;;;;;;1875363;76;21114;-54
2021/08/04 00:44:58;;;;;;;16.73;11.50;;;26.00;69.20;;;;;;1875230;76;21474;-52
2021/08/04 00:47:27;;;;;;;14.20;10.72;;;25.90;69.60;;;;;;1875241;76;21063;-53
2021/08/04 00:49:58;;;;;;;15.28;11.95;;;25.90;69.90;;;;;;1875316;76;21003;-52
2021/08/04 00:52:27;;;;;;;14.10;11.33;;;25.90;70.20;;;;;;1875516;76;21008;-53
2021/08/04 00:54:57;;;;;;;14.90;12.20;;;25.90;70.20;;;;;;1875518;76;21031;-53
2021/08/04 00:57:26;;;;;;;17.00;12.37;;;25.90;70.20;;;;;;1875332;76;21048;-53
2021/08/04 00:59:56;;;;;;;19.17;12.68;;;25.90;70.10;;;;;;1875490;76;21012;-54
2021/08/04 01:02:30;;;;;;;14.93;11.68;;;25.90;70.20;;;;;;1875381;76;21131;-53
2021/08/04 01:05:05;;;;;;;19.73;12.78;;;25.80;70.30;;;;;;1875617;76;21055;-54
2021/08/04 01:07:38;;;;;;;20.25;13.08;;;25.70;70.40;;;;;;1875462;76;21415;-53
2021/08/04 01:10:10;;;;;;;16.37;12.80;;;25.60;70.50;;;;;;1875320;76;21043;-53
2021/08/04 01:12:45;;;;;;;14.45;11.93;;;25.50;70.90;;;;;;1875432;76;21023;-53
2021/08/04 01:15:15;;;;;;;19.23;12.55;;;25.40;71.00;;;;;;1875459;76;21513;-53
2021/08/04 01:17:47;;;;;;;16.35;11.63;;;25.30;71.30;;;;;;1875304;76;21043;-53
2021/08/04 01:20:19;;;;;;;21.37;14.07;;;25.30;71.70;;;;;;1875378;76;21027;-53
2021/08/04 01:23:06;;;;;;;28.10;14.23;;;25.30;71.90;;;;;;1875340;76;21117;-53
2021/08/04 01:25:58;;;;;;;27.60;17.65;;;25.30;72.10;;;;;;1857791;75;21224;-52
2021/08/04 01:28:33;;;;;;;21.70;12.93;;;25.30;72.20;;;;;;1875401;76;21117;-52
2021/08/04 01:31:08;;;;;;;20.15;12.13;;;25.40;72.30;;;;;;1875436;76;21047;-53
2021/08/04 01:33:40;;;;;;;24.12;13.03;;;25.40;72.30;;;;;;1875438;76;21019;-53
2021/08/04 01:36:10;;;;;;;18.20;11.55;;;25.50;72.20;;;;;;1875446;76;21477;-54
2021/08/04 01:38:40;;;;;;;18.30;12.45;;;25.50;71.60;;;;;;1875417;76;21004;-53
2021/08/04 01:41:12;;;;;;;16.05;12.33;;;25.50;71.90;;;;;;1875513;76;21101;-52
2021/08/04 01:43:43;;;;;;;22.85;12.58;;;25.60;72.00;;;;;;1875454;76;21031;-54
2021/08/04 01:46:14;;;;;;;16.48;11.40;;;25.50;72.00;;;;;;1875503;76;21098;-53
2021/08/04 01:48:44;;;;;;;18.55;13.30;;;25.50;72.00;;;;;;1875438;76;21030;-54
2021/08/04 01:51:14;;;;;;;16.97;10.90;;;25.60;72.00;;;;;;1875439;76;21067;-53
2021/08/04 01:53:46;;;;;;;20.82;12.05;;;25.60;72.00;;;;;;1875524;76;21004;-54
2021/08/04 01:56:16;;;;;;;15.68;11.97;;;25.60;72.00;;;;;;1875577;76;21466;-53
2021/08/04 01:58:46;;;;;;;19.85;12.70;;;25.60;72.60;;;;;;1875379;76;21004;-53
2021/08/04 02:01:15;;;;;;;13.93;11.97;;;25.60;72.00;;;;;;1875415;76;21035;-53
2021/08/04 02:03:44;;;;;;;19.12;12.70;;;25.60;72.00;;;;;;1875482;76;21588;-52
2021/08/04 02:06:22;;;;;;;18.23;13.05;;;25.60;71.90;;;;;;1875435;76;21114;-54
2021/08/04 02:08:58;;;;;;;17.42;11.28;;;25.60;71.80;;;;;;1875515;76;21016;-53
2021/08/04 02:11:32;;;;;;;13.68;12.28;;;25.50;71.90;;;;;;1875456;76;21479;-52
2021/08/04 02:14:08;;;;;;;15.88;11.93;;;25.50;72.20;;;;;;1874427;76;21122;-53
2021/08/04 02:17:03;;;;;;;17.73;13.43;;;25.40;72.30;;;;;;1874675;76;21063;-53
2021/08/04 02:19:41;;;;;;;16.35;12.15;;;25.40;72.40;;;;;;1875472;76;21016;-54
2021/08/04 02:22:16;;;;;;;15.93;12.80;;;25.40;72.40;;;;;;1875465;76;21095;-53
2021/08/04 02:24:46;;;;;;;;;;;25.50;72.40;;;;;;1877947;76;21572;-54
2021/08/04 02:27:16;;;;;;;15.58;12.50;;;25.40;71.90;;;;;;1874150;75;20140;-52
2021/08/04 02:29:47;;;;;;;15.88;12.18;;;25.40;72.10;;;;;;1875377;76;21036;-53
2021/08/04 02:32:16;;;;;;;17.73;12.25;;;25.50;72.30;;;;;;1875512;76;21130;-53
2021/08/04 02:34:46;;;;;;;17.87;12.85;;;25.40;72.20;;;;;;1875477;76;21028;-53
2021/08/04 02:37:15;;;;;;;18.67;12.55;;;25.50;72.30;;;;;;1875354;76;21097;-54
2021/08/04 02:39:45;;;;;;;21.87;12.90;;;25.60;72.30;;;;;;1875280;76;21027;-53
2021/08/04 02:42:14;;;;;;;19.20;14.18;;;25.50;72.30;;;;;;1875310;76;21036;-53
2021/08/04 02:44:44;;;;;;;18.37;13.32;;;25.50;72.60;;;;;;1875244;76;21032;-52
2021/08/04 02:47:13;;;;;;;18.15;13.50;;;25.40;72.80;;;;;;1875236;76;21040;-53
2021/08/04 02:49:43;;;;;;;19.75;12.93;;;25.40;73.00;;;;;;1875331;76;21015;-53
2021/08/04 02:52:14;;;;;;;20.30;12.23;;;25.40;73.10;;;;;;1875250;76;21031;-53
2021/08/04 02:54:47;;;;;;;18.57;13.03;;;25.40;73.10;;;;;;1875311;76;21506;-52
2021/08/04 02:57:17;;;;;;;23.27;12.60;;;25.50;73.00;;;;;;1875470;76;21090;-54
2021/08/04 02:59:46;;;;;;;16.40;12.18;;;25.50;72.90;;;;;;1875428;76;21036;-52
2021/08/04 03:02:16;;;;;;;13.58;11.22;;;25.60;72.80;;;;;;1875426;76;21106;-55
2021/08/04 03:04:45;;;;;;;15.15;12.18;;;25.60;72.80;;;;;;1875308;76;21031;-52
2021/08/04 03:07:15;;;;;;;13.18;11.12;;;25.60;72.70;;;;;;1875374;76;21036;-54
2021/08/04 03:09:44;;;;;;;23.18;11.70;;;25.70;72.70;;;;;;1875227;76;21040;-53
2021/08/04 03:12:13;;;;;;;18.65;13.20;;;25.80;72.70;;;;;;1875342;76;21008;-53
2021/08/04 03:14:43;;;;;;;16.65;12.20;;;25.80;72.50;;;;;;1875372;76;21423;-53
2021/08/04 03:17:12;;;;;;;16.95;11.60;;;25.90;72.50;;;;;;1875359;76;21102;-53
2021/08/04 03:19:42;;;;;;;17.10;12.40;;;26.00;72.40;;;;;;1875291;76;21075;-52
2021/08/04 03:22:12;;;;;;;18.80;12.13;;;26.00;72.30;;;;;;1875231;76;21035;-53
2021/08/04 03:24:42;;;;;;;16.80;12.33;;;26.10;72.30;;;;;;1875289;76;21075;-53
2021/08/04 03:27:11;;;;;;;20.32;11.97;;;26.10;72.00;;;;;;1880802;75;21515;-52
2021/08/04 03:29:41;;;;;;;19.73;13.45;;;26.20;72.00;;;;;;1886898;76;21147;-53
2021/08/04 03:32:11;;;;;;;17.75;11.38;;;26.20;71.90;;;;;;1886922;76;21103;-53
2021/08/04 03:34:40;;;;;;;12.93;11.50;;;26.30;71.80;;;;;;1886938;76;21033;-53
2021/08/04 03:37:09;;;;;;;21.85;11.68;;;26.40;71.60;;;;;;1886980;76;21041;-53
2021/08/04 03:39:39;;;;;;;19.05;12.43;;;26.40;71.50;;;;;;1886865;76;21060;-53
2021/08/04 03:42:08;;;;;;;17.20;11.75;;;26.50;71.20;;;;;;1886868;76;21034;-52
2021/08/04 03:44:37;;;;;;;16.00;11.70;;;26.60;71.10;;;;;;1887001;76;21428;-53
2021/08/04 03:47:06;;;;;;;18.27;11.12;;;26.60;71.00;;;;;;1886827;76;21053;-53
2021/08/04 03:49:36;;;;;;;19.35;12.78;;;26.70;71.00;;;;;;1886999;76;21053;-54
2021/08/04 03:52:06;;;;;;;16.90;11.93;;;26.70;70.80;;;;;;1886964;76;21041;-52
2021/08/04 03:54:35;;;;;;;18.87;12.07;;;26.80;70.60;;;;;;1887122;76;21028;-53
2021/08/04 03:57:05;;;;;;;14.35;10.93;;;26.80;70.60;;;;;;1887084;76;21049;-51
2021/08/04 03:59:35;;;;;;;14.28;12.58;;;26.90;70.60;;;;;;1887078;76;21053;-54
2021/08/04 04:02:04;;;;;;;19.37;11.43;;;26.90;70.30;;;;;;1887063;76;21017;-54
2021/08/04 04:04:34;;;;;;;17.57;11.10;;;27.00;70.10;;;;;;1887020;76;21029;-53
2021/08/04 04:07:03;;;;;;;18.90;11.68;;;27.00;69.90;;;;;;1886873;76;21037;-53
2021/08/04 04:09:34;;;;;;;16.90;11.50;;;27.00;69.80;;;;;;1886838;76;21014;-54
2021/08/04 04:12:04;;;;;;;18.27;11.50;;;27.00;69.40;;;;;;1886960;76;21103;-53
2021/08/04 04:14:33;;;;;;;16.07;11.35;;;27.10;69.10;;;;;;1886882;76;21005;-53
2021/08/04 04:17:03;;;;;;;18.85;11.88;;;27.10;68.90;;;;;;1886826;76;21100;-54
2021/08/04 04:19:32;;;;;;;20.35;12.03;;;27.20;68.90;;;;;;1886908;76;21077;-53
2021/08/04 04:22:01;;;;;;;21.87;11.80;;;27.20;68.60;;;;;;1886797;76;21116;-53
2021/08/04 04:24:31;;;;;;;18.23;11.78;;;27.20;68.30;;;;;;1887001;76;21033;-54
2021/08/04 04:27:00;;;;;;;17.48;12.53;;;27.20;68.10;;;;;;1885173;76;21059;-53
2021/08/04 04:29:30;;;;;;;20.12;12.58;;;27.30;68.10;;;;;;1875271;76;21052;-53
2021/08/04 04:31:59;;;;;;;18.65;12.07;;;27.30;68.10;;;;;;1875266;76;21134;-53
2021/08/04 04:34:28;;;;;;;14.65;11.73;;;27.40;67.90;;;;;;1875379;76;21008;-54
2021/08/04 04:36:58;;;;;;;15.90;11.38;;;27.50;67.90;;;;;;1875262;76;21023;-53
2021/08/04 04:39:27;;;;;;;17.50;12.53;;;27.50;67.70;;;;;;1875393;76;21098;-54
2021/08/04 04:41:57;;;;;;;18.95;11.43;;;27.60;67.50;;;;;;1875208;76;21031;-54
2021/08/04 04:44:26;;;;;;;15.83;11.48;;;27.70;67.30;;;;;;1875221;76;21090;-53
2021/08/04 04:46:55;;;;;;;20.23;12.43;;;27.80;67.10;;;;;;1875221;76;21120;-54
2021/08/04 04:49:25;;;;;;;26.15;13.48;;;27.90;66.90;;;;;;1875186;76;21098;-53
2021/08/04 04:51:54;;;;;;;21.70;12.65;;;28.00;66.60;;;;;;1875309;76;21472;-53
2021/08/04 04:54:24;;;;;;;22.27;14.93;;;28.10;66.40;;;;;;1875301;76;21102;-53
2021/08/04 04:56:53;;;;;;;16.93;12.70;;;28.20;66.10;;;;;;1875246;76;21102;-53
2021/08/04 04:59:23;;;;;;;16.93;11.83;;;28.30;65.70;;;;;;1875283;76;21071;-53
2021/08/04 05:01:52;;;;;;;18.02;11.73;;;28.30;65.20;;;;;;1875171;76;21091;-53
2021/08/04 05:04:21;;;;;;;16.12;12.43;;;28.40;64.80;;;;;;1875165;76;21412;-54
2021/08/04 05:06:51;;;;;;;22.05;12.45;;;28.50;64.60;;;;;;1875287;76;21043;-54
2021/08/04 05:09:20;;;;;;;20.68;11.75;;;28.60;64.30;;;;;;1875103;76;21113;-53
2021/08/04 05:11:50;;;;;;;17.95;11.63;;;28.60;64.00;;;;;;1875209;76;21211;-53
2021/08/04 05:14:19;;;;;;;15.95;11.48;;;28.60;63.80;;;;;;1875260;76;21032;-54
2021/08/04 05:16:49;;;;;;;16.75;11.70;;;28.70;63.20;;;;;;1875171;76;21113;-54
2021/08/04 05:19:18;;;;;;;23.00;11.43;;;28.70;63.10;;;;;;1875375;76;21032;-53
2021/08/04 05:21:47;;;;;;;19.57;11.70;;;28.70;62.90;;;;;;1875325;76;21032;-53
2021/08/04 05:24:17;;;;;;;18.70;12.07;;;28.60;63.00;;;;;;1875288;76;21035;-53
2021/08/04 05:26:46;;;;;;;21.12;11.95;;;28.60;63.30;;;;;;1875284;76;21098;-53
2021/08/04 05:29:16;;;;;;;24.18;12.35;;;28.60;63.40;;;;;;1875221;75;21059;-52
2021/08/04 05:31:45;;;;;;;20.52;11.05;;;28.70;63.30;;;;;;1875166;76;21067;-54
2021/08/04 05:34:16;;;;;;;18.25;11.68;;;28.80;63.20;;;;;;1875168;76;21466;-53
2021/08/04 05:36:46;;;;;;;15.32;10.13;;;28.90;62.90;;;;;;1875357;76;21063;-54
2021/08/04 05:39:15;;;;;;;13.53;10.08;;;28.90;62.40;;;;;;1875226;76;21135;-53
2021/08/04 05:41:44;;;;;;;14.75;9.80;;;28.90;62.00;;;;;;1875194;76;21127;-53
2021/08/04 05:44:14;;;;;;;15.65;11.28;;;29.00;62.20;;;;;;1875307;76;21012;-54
2021/08/04 05:46:43;;;;;;;18.45;10.10;;;29.00;62.00;;;;;;1875301;76;21113;-54
2021/08/04 05:49:12;;;;;;;26.12;11.12;;;29.00;62.00;;;;;;1875342;76;21086;-54
2021/08/04 05:51:42;;;;;;;15.30;9.90;;;29.10;62.40;;;;;;1875217;76;21101;-53
2021/08/04 05:54:11;;;;;;;16.85;11.22;;;29.10;61.50;;;;;;1875219;76;21044;-52
2021/08/04 05:56:41;;;;;;;13.53;10.32;;;29.20;61.30;;;;;;1875211;76;21110;-53
2021/08/04 05:59:10;;;;;;;17.35;10.48;;;29.20;61.20;;;;;;1875240;76;21048;-53
2021/08/04 06:01:39;;;;;;;14.20;10.53;;;29.30;61.10;;;;;;1875287;76;21031;-53
2021/08/04 06:04:09;;;;;;;15.30;10.43;;;29.30;60.70;;;;;;1875315;76;21028;-53
2021/08/04 06:06:38;;;;;;;15.55;10.55;;;29.30;60.60;;;;;;1875280;76;21482;-53
2021/08/04 06:09:08;;;;;;;13.93;11.15;;;29.30;60.70;;;;;;1875212;76;21117;-54
2021/08/04 06:11:37;;;;;;;15.72;10.85;;;29.40;60.80;;;;;;1875227;76;21008;-53
2021/08/04 06:14:06;;;;;;;14.65;10.88;;;29.50;60.70;;;;;;1875272;76;21028;-53
2021/08/04 06:16:36;;;;;;;18.02;10.82;;;29.50;60.60;;;;;;1875219;76;21109;-54
2021/08/04 06:19:05;;;;;;;15.53;10.85;;;29.60;60.50;;;;;;1875349;76;21098;-53
2021/08/04 06:21:36;;;;;;;15.80;11.45;;;29.70;60.30;;;;;;1875233;76;21036;-54
2021/08/04 06:24:05;;;;;;;22.20;11.78;;;29.80;60.00;;;;;;1875291;76;21027;-53
2021/08/04 06:26:35;;;;;;;15.18;10.90;;;29.90;59.70;;;;;;1875339;76;21048;-53
2021/08/04 06:29:05;;;;;;;22.82;13.22;;;29.90;59.40;;;;;;1875370;75;21067;-54
2021/08/04 06:31:34;;;;;;;15.23;11.28;;;30.00;59.30;;;;;;1875280;76;21032;-53
2021/08/04 06:34:03;;;;;;;16.25;11.20;;;30.10;58.90;;;;;;1875425;76;21036;-53
2021/08/04 06:36:34;;;;;;;17.73;12.30;;;30.10;58.70;;;;;;1875399;76;21015;-53
2021/08/04 06:39:04;;;;;;;15.05;12.28;;;30.10;58.60;;;;;;1875311;76;21129;-53
2021/08/04 06:41:33;;;;;;;17.20;12.18;;;30.20;58.60;;;;;;1875305;76;21074;-54
2021/08/04 06:44:03;;;;;;;15.00;11.50;;;30.20;58.40;;;;;;1875330;76;21091;-53
2021/08/04 06:46:36;;;;;;;15.98;12.53;;;30.20;58.30;;;;;;1875296;76;21032;-54
2021/08/04 06:49:06;;;;;;;20.08;12.23;;;30.20;58.20;;;;;;1875244;76;21004;-53
2021/08/04 06:51:36;;;;;;;23.67;14.25;;;30.20;58.10;;;;;;1875251;76;21052;-56
2021/08/04 06:54:05;;;;;;;20.88;12.03;;;30.30;58.10;;;;;;1874158;76;21102;-55
2021/08/04 06:56:35;;;;;;;19.90;12.85;;;30.40;57.90;;;;;;1874535;76;21102;-56
2021/08/04 06:59:04;;;;;;;18.07;10.48;;;30.60;57.80;;;;;;1874736;76;21038;-55
2021/08/04 07:01:33;;;;;;;15.80;11.88;;;30.70;57.70;;;;;;1874575;76;21059;-56
2021/08/04 07:04:02;;;;;;;16.02;11.00;;;30.70;57.70;;;;;;1874648;76;21501;-56
2021/08/04 07:06:32;;;;;;;17.42;11.60;;;30.80;57.60;;;;;;1874601;76;21141;-57
2021/08/04 07:09:01;;;;;;;18.07;11.10;;;30.80;57.50;;;;;;1874412;76;21114;-56
2021/08/04 07:11:31;;;;;;;15.98;10.75;;;30.80;57.20;;;;;;1874643;76;21122;-57
2021/08/04 07:14:02;;;;;;;18.17;12.88;;;30.80;57.40;;;;;;1874660;76;21498;-57
2021/08/04 07:16:31;;;;;;;18.12;11.80;;;30.80;57.10;;;;;;1874595;76;21172;-56
2021/08/04 07:19:00;;;;;;;15.80;11.65;;;30.90;57.10;;;;;;1874701;76;21458;-55
2021/08/04 07:21:29;;;;;;;16.65;11.85;;;31.00;56.80;;;;;;1874601;76;21027;-56
2021/08/04 07:23:59;;;;;;;15.20;12.00;;;31.00;56.70;;;;;;1874538;76;21220;-56
2021/08/04 07:26:28;;;;;;;17.20;12.28;;;31.00;56.90;;;;;;1874792;76;21040;-58
2021/08/04 07:28:57;;;;;;;15.18;11.85;;;31.00;56.80;;;;;;1874579;75;21044;-56
2021/08/04 07:31:27;;;;;;;16.23;11.25;;;31.10;56.60;;;;;;1874513;76;21047;-55
2021/08/04 07:33:56;;;;;;;17.20;11.50;;;31.20;56.10;;;;;;1874589;76;21141;-56
2021/08/04 07:36:26;;;;;;;18.50;11.40;;;31.20;55.80;;;;;;1874573;76;21177;-55
2021/08/04 07:38:55;;;;;;;15.32;11.78;;;31.30;55.80;;;;;;1874489;76;21051;-56
2021/08/04 07:41:24;;;;;;;12.80;11.12;;;31.40;55.90;;;;;;1874666;76;21098;-56
2021/08/04 07:43:54;;;;;;;17.80;12.03;;;31.50;55.80;;;;;;1874618;76;21482;-57
2021/08/04 07:46:24;;;;;;;21.57;13.43;;;31.50;55.70;;;;;;1874437;76;21063;-57
2021/08/04 07:48:53;;;;;;;17.25;11.45;;;31.50;55.60;;;;;;1874542;76;21099;-58
2021/08/04 07:51:22;;;;;;;14.98;11.93;;;31.60;55.40;;;;;;1874568;76;21168;-53
2021/08/04 07:53:52;;;;;;;17.60;12.00;;;31.50;55.40;;;;;;1874581;76;21032;-58
2021/08/04 07:56:23;;;;;;;20.45;11.57;;;31.60;55.30;;;;;;1874787;76;21422;-56
2021/08/04 07:58:53;;;;;;;20.52;13.22;;;31.60;55.20;;;;;;1874673;76;21502;-56
2021/08/04 08:01:23;;;;;;;14.15;11.10;;;31.70;55.30;;;;;;1874492;76;21090;-59
2021/08/04 08:03:53;;;;;;;18.40;11.68;;;31.70;55.20;;;;;;1874733;76;21283;-57
2021/08/04 08:06:22;;;;;;;15.90;11.43;;;31.80;55.20;;;;;;1874604;76;21086;-58
2021/08/04 08:08:52;;;;;;;15.65;11.48;;;31.90;55.10;;;;;;1874670;76;21097;-56
2021/08/04 08:11:21;;;;;;;15.70;10.53;;;31.90;54.90;;;;;;1874746;76;21028;-56
2021/08/04 08:13:52;;;;;;;16.12;11.28;;;32.00;55.10;;;;;;1874521;76;21043;-58
2021/08/04 08:16:21;;;;;;;16.73;10.90;;;32.00;55.10;;;;;;1874507;76;21099;-58
2021/08/04 08:18:50;;;;;;;14.90;11.28;;;32.10;54.90;;;;;;1874682;76;21075;-55
2021/08/04 08:21:23;;;;;;;26.20;11.83;;;32.20;54.60;;;;;;1874652;76;21431;-55
2021/08/04 08:23:51;;;;;;;15.23;11.05;;;32.30;54.30;;;;;;1874426;76;21390;-55
2021/08/04 08:26:24;;;;;;;18.98;11.73;;;32.40;54.40;;;;;;1874546;76;21079;-54
2021/08/04 08:28:54;;;;;;;13.45;10.40;;;32.40;54.30;;;;;;1874979;76;21075;-56
2021/08/04 08:31:23;;;;;;;14.65;10.25;;;32.50;54.30;;;;;;1874631;75;21114;-55
2021/08/04 08:33:53;;;;;;;13.40;10.32;;;32.50;54.30;;;;;;1874590;76;21098;-56
2021/08/04 08:36:22;;;;;;;15.00;10.55;;;32.40;54.30;;;;;;1874509;76;21083;-55
2021/08/04 08:38:52;;;;;;;15.10;11.20;;;32.50;54.10;;;;;;1874313;76;21145;-54
2021/08/04 08:41:21;;;;;;;15.10;11.43;;;32.60;53.50;;;;;;1874458;76;21031;-52
2021/08/04 08:43:51;;;;;;;15.35;10.72;;;32.50;53.40;;;;;;1874470;76;21024;-49
2021/08/04 08:46:20;;;;;;;21.55;10.10;;;32.60;53.30;;;;;;1874581;76;21040;-53
2021/08/04 08:48:50;;;;;;;17.10;11.05;;;32.70;53.30;;;;;;1874434;76;21571;-53
2021/08/04 08:51:26;;;;;;;14.95;9.70;;;32.80;53.20;;;;;;1874656;76;21044;-54
2021/08/04 08:53:52;;;;;;;26.35;11.95;;;32.90;53.00;;;;;;1873604;76;21471;-52
2021/08/04 08:56:22;;;;;;;16.30;9.95;;;32.90;52.80;;;;;;1874509;76;21038;-53
2021/08/04 08:58:52;;;;;;;17.30;10.53;;;32.80;52.90;;;;;;1874579;76;21012;-53
2021/08/04 09:01:30;;;;;;;11.93;10.00;;;32.80;52.90;;;;;;1874499;76;21090;-52
2021/08/04 09:04:02;;;;;;;16.10;9.93;;;32.90;52.60;;;;;;1873816;76;21150;-55
2021/08/04 09:06:53;;;;;;;12.10;9.15;;;32.90;52.60;;;;;;1874593;76;21051;-56
2021/08/04 09:09:30;;;;;;;13.00;10.25;;;32.90;52.80;;;;;;1874461;76;21043;-55
2021/08/04 09:12:09;;;;;;;13.25;10.45;;;32.90;52.80;;;;;;1873429;76;21146;-56
2021/08/04 09:14:39;;;;;;;17.23;9.60;;;33.00;52.50;;;;;;1874530;76;21120;-53
2021/08/04 09:17:13;;;;;;;14.30;10.65;;;33.10;52.30;;;;;;1881663;76;21033;-56
2021/08/04 09:19:45;;;;;;;19.92;10.72;;;33.10;52.30;;;;;;1889078;76;21332;-51
2021/08/04 09:22:26;;;;;;;14.93;11.03;;;33.10;52.30;;;;;;1889615;76;21034;-56
2021/08/04 09:25:09;;;;;;;12.82;10.30;;;33.10;52.20;;;;;;1889569;76;21037;-53
2021/08/04 09:27:47;;;;;;;14.15;11.80;;;33.00;52.00;;;;;;1889545;76;21088;-52
2021/08/04 09:30:25;;;;;;;18.12;10.40;;;32.90;52.40;;;;;;1885206;76;21076;-52
2021/08/04 09:32:55;;;;;;;17.80;11.53;;;32.90;52.50;;;;;;1886273;76;21511;-53
2021/08/04 09:35:24;;;;;;;22.85;13.05;;;32.90;52.60;;;;;;1886265;76;21064;-56
2021/08/04 09:37:56;;;;;;;24.85;13.83;;;33.00;52.50;;;;;;1885984;76;21166;-54
2021/08/04 09:40:26;;;;;;;17.37;11.20;;;33.10;51.90;;;;;;1883350;76;21202;-50
2021/08/04 09:42:57;;;;;;;15.53;10.63;;;33.10;51.60;;;;;;1886326;76;21045;-51
2021/08/04 09:45:43;;;;;;;16.93;11.10;;;33.10;51.40;;;;;;1885965;76;21088;-55
2021/08/04 09:48:16;;;;;;;17.92;10.50;;;33.20;51.50;;;;;;1886414;76;21134;-52
2021/08/04 09:50:54;;;;;;;17.40;11.22;;;33.30;51.20;;;;;;1886237;76;21108;-52
2021/08/04 09:53:29;;;;;;;12.43;11.15;;;33.30;50.70;;;;;;1885709;76;21177;-54
2021/08/04 09:56:10;;;;;;;15.65;11.45;;;33.40;50.60;;;;;;1886020;76;22208;-52
2021/08/04 09:58:53;;;;;;;18.80;11.15;;;33.40;50.50;;;;;;1886173;76;21111;-52
2021/08/04 10:01:37;;;;;;;14.18;11.83;;;33.60;50.70;;;;;;1886411;76;21104;-52
2021/08/04 10:04:08;;;;;;;21.82;12.03;;;33.60;50.00;;;;;;1870922;76;21049;-52
2021/08/04 10:06:40;;;;;;;14.55;10.23;;;33.60;50.10;;;;;;1864440;77;21111;-53
2021/08/04 10:09:11;;;;;;;12.98;10.82;;;33.60;49.60;;;;;;1864731;77;21084;-52
2021/08/04 10:11:47;;;;;;;17.85;11.90;;;33.60;49.10;;;;;;1864418;77;20989;-52
2021/08/04 10:14:20;;;;;;;15.83;10.80;;;33.60;49.10;;;;;;1864339;77;21081;-52
2021/08/04 10:16:51;;;;;;;12.53;10.23;;;33.60;49.30;;;;;;1864643;77;21093;-52
2021/08/04 10:19:22;;;;;;;14.00;10.30;;;33.60;49.00;;;;;;1864482;77;21033;-53
2021/08/04 10:21:53;;;;;;;16.62;11.05;;;33.60;49.10;;;;;;1864969;77;21057;-52
2021/08/04 10:24:23;;;;;;;13.08;11.63;;;33.80;49.50;;;;;;1870060;77;21589;-50
2021/08/04 10:26:54;;;;;;;12.93;11.05;;;33.80;49.70;;;;;;1867146;77;21535;-53
2021/08/04 10:29:24;;;;;;;20.23;11.40;;;33.80;48.60;;;;;;1864390;77;21114;-52
2021/08/04 10:31:54;;;;;;;13.00;10.72;;;33.80;48.80;;;;;;1878507;76;21174;-51
2021/08/04 10:34:28;;;;;;;19.65;11.78;;;33.80;48.70;;;;;;1885378;76;21491;-53
2021/08/04 10:36:59;;;;;;;17.85;11.12;;;33.80;48.50;;;;;;1885993;76;21033;-53
2021/08/04 10:39:30;;;;;;;16.25;11.55;;;33.80;48.60;;;;;;1886214;76;21029;-53
2021/08/04 10:42:08;;;;;;;15.53;11.70;;;33.90;48.70;;;;;;1886120;76;21159;-54
2021/08/04 10:44:39;;;;;;;12.28;11.08;;;34.00;48.90;;;;;;1886234;76;21119;-52
2021/08/04 10:47:11;;;;;;;15.53;10.72;;;34.00;48.80;;;;;;1886319;76;21049;-53
2021/08/04 10:49:40;;;;;;;14.65;10.85;;;34.10;48.80;;;;;;1880557;76;21170;-52
2021/08/04 10:52:11;;;;;;;16.80;10.90;;;34.10;48.40;;;;;;1886236;76;21133;-53
2021/08/04 10:54:59;;;;;;;13.13;11.85;;;34.10;48.40;;;;;;1886217;76;21073;-54
2021/08/04 10:57:29;;;;;;;12.63;10.35;;;34.20;48.10;;;;;;1886029;76;21013;-52
2021/08/04 11:00:01;;;;;;;13.65;11.83;;;34.30;48.00;;;;;;1886385;76;21080;-53
2021/08/04 11:02:32;;;;;;;17.73;11.25;;;34.30;47.90;;;;;;1878275;76;21053;-53
2021/08/04 11:05:02;;;;;;;14.85;10.75;;;34.40;48.00;;;;;;1885127;76;21193;-50
2021/08/04 11:07:31;;;;;;;18.60;11.80;;;34.40;47.30;;;;;;1885017;76;21453;-53
2021/08/04 11:10:01;;;;;;;14.18;10.30;;;34.40;47.50;;;;;;1886064;76;21091;-53
2021/08/04 11:12:44;;;;;;;11.78;10.13;;;34.40;47.40;;;;;;1886186;76;21085;-55
2021/08/04 11:15:29;;;;;;;15.85;11.10;;;34.40;47.00;;;;;;1885648;76;21029;-53
2021/08/04 11:18:16;;;;;;;13.70;9.60;;;34.30;47.10;;;;;;1886468;76;21114;-54
2021/08/04 11:21:11;;;;;;;13.68;10.65;;;34.30;47.30;;;;;;1886303;76;21111;-54
2021/08/04 11:23:48;;;;;;;15.58;10.88;;;34.30;46.90;;;;;;1886448;76;21049;-53
2021/08/04 11:26:38;;;;;;;18.80;10.15;;;34.30;47.10;;;;;;1886199;76;21057;-53
2021/08/04 11:29:08;;;;;;;18.27;11.10;;;34.30;47.00;;;;;;1886381;76;21037;-54
2021/08/04 11:31:38;;;;;;;13.45;10.30;;;34.30;47.10;;;;;;1886242;76;21069;-54
2021/08/04 11:34:29;;;;;;;15.70;9.43;;;34.20;46.80;;;;;;1886211;76;21103;-54
2021/08/04 11:37:01;;;;;;;12.13;9.50;;;34.20;47.20;;;;;;1823804;76;21053;-54
2021/08/04 11:39:30;;;;;;;15.55;10.23;;;34.20;47.20;;;;;;1886299;76;21022;-54
2021/08/04 11:42:05;;;;;;;18.92;11.03;;;34.30;47.40;;;;;;1886202;76;21013;-54
2021/08/04 11:44:31;;;;;;;10.80;9.20;;;34.40;47.30;;;;;;1886170;76;21783;-55
2021/08/04 11:47:06;;;;;;;11.12;9.50;;;34.50;46.60;;;;;;1886304;76;21095;-54
2021/08/04 11:49:45;;;;;;;13.93;9.33;;;34.50;46.20;;;;;;1886232;76;21053;-53
2021/08/04 11:52:22;;;;;;;11.75;9.33;;;34.50;46.40;;;;;;1886206;76;21069;-54
2021/08/04 11:55:00;;;;;;;17.77;10.05;;;34.50;46.30;;;;;;1885509;76;21112;-55
2021/08/04 11:57:31;;;;;;;21.02;9.83;;;34.40;46.60;;;;;;1886414;76;21042;-54
2021/08/04 12:00:02;;;;;;;13.50;9.55;;;34.40;46.30;;;;;;1886289;76;21107;-54
2021/08/04 12:02:35;;;;;;;12.33;9.60;;;34.30;46.40;;;;;;1886278;76;21022;-54
2021/08/04 12:05:08;;;;;;;16.23;9.53;;;34.30;46.60;;;;;;1886166;76;21579;-54
2021/08/04 12:07:38;;;;;;;12.90;8.88;;;34.30;46.60;;;;;;1886350;76;21115;-55
2021/08/04 12:10:12;;;;;;;14.00;9.23;;;34.30;46.30;;;;;;1886243;76;21037;-55
2021/08/04 12:12:47;;;;;;;15.38;10.25;;;34.40;46.10;;;;;;1886415;76;21014;-53
2021/08/04 12:15:28;;;;;;;13.58;8.75;;;34.50;45.90;;;;;;1886200;75;21053;-54
2021/08/04 12:18:05;;;;;;;25.77;22.95;;;34.50;46.30;;;;;;1886285;76;21107;-53
2021/08/04 12:20:37;;;;;;;54.38;44.98;;;34.60;45.80;;;;;;1886289;76;21099;-55
2021/08/04 12:23:12;;;;;;;10.50;9.40;;;34.60;46.00;;;;;;1886325;76;21033;-54
2021/08/04 12:25:46;;;;;;;11.00;9.03;;;34.60;45.40;;;;;;1886420;76;21013;-54
2021/08/04 12:28:16;;;;;;;11.70;8.73;;;34.60;45.60;;;;;;1886370;76;21061;-55
2021/08/04 12:30:45;;;;;;;10.08;8.68;;;34.60;45.10;;;;;;1886342;76;21076;-55
2021/08/04 12:33:22;;;;;;;13.53;10.10;;;34.60;45.00;;;;;;1886277;76;21108;-55
2021/08/04 12:36:05;;;;;;;11.90;7.87;;;34.50;44.80;;;;;;1886223;76;21025;-55
2021/08/04 12:38:36;;;;;;;10.80;8.58;;;34.50;45.10;;;;;;1886590;76;21010;-54
2021/08/04 12:41:07;;;;;;;12.82;8.73;;;34.50;45.30;;;;;;1886270;76;21060;-55
2021/08/04 12:43:41;;;;;;;12.63;8.15;;;34.50;45.10;;;;;;1886322;76;21038;-55
2021/08/04 12:46:12;;;;;;;12.03;7.10;;;34.60;45.00;;;;;;1886416;76;21112;-55
2021/08/04 12:48:48;;;;;;;11.90;7.42;;;34.70;44.60;;;;;;1886329;76;21025;-55